sensor_id;sensor_type;location;lat;lon;timestamp;pressure;altitude;pressure_sealevel;temperature;humidity
7157;BME280;3620;49.862;8.758;2022-08-14T00:00:21;98955.25;;;24.52;49.55
7157;BME280;3620;49.862;8.758;2022-08-14T00:02:48;98951.72;;;24.51;49.78
7157;BME280;3620;49.862;8.758;2022-08-14T00:05:18;98947.34;;;24.50;49.58
7157;BME280;3620;49.862;8.758;2022-08-14T00:07:45;98945.34;;;24.44;49.98
7157;BME280;3620;49.862;8.758;2022-08-14T00:10:15;98933.88;;;24.42;50.26
7157;BME280;3620;49.862;8.758;2022-08-14T00:12:45;98937.75;;;24.40;50.57
7157;BME280;3620;49.862;8.758;2022-08-14T00:15:16;98933.53;;;24.37;50.86
7157;BME280;3620;49.862;8.758;2022-08-14T00:17:44;98930.19;;;24.35;51.35
7157;BME280;3620;49.862;8.758;2022-08-14T00:20:11;98934.72;;;24.35;51.63
7157;BME280;3620;49.862;8.758;2022-08-14T00:22:38;98935.19;;;24.30;52.24
7157;BME280;3620;49.862;8.758;2022-08-14T00:25:06;98930.00;;;24.29;52.42
7157;BME280;3620;49.862;8.758;2022-08-14T00:27:33;98916.69;;;24.27;52.55
7157;BME280;3620;49.862;8.758;2022-08-14T00:30:00;98914.69;;;24.29;52.74
7157;BME280;3620;49.862;8.758;2022-08-14T00:32:28;98910.47;;;24.27;52.87
7157;BME280;3620;49.862;8.758;2022-08-14T00:34:55;98914.19;;;24.26;51.83
7157;BME280;3620;49.862;8.758;2022-08-14T00:37:25;98914.00;;;24.19;52.11
7157;BME280;3620;49.862;8.758;2022-08-14T00:39:52;98905.56;;;24.14;52.63
7157;BME280;3620;49.862;8.758;2022-08-14T00:42:19;98907.56;;;24.12;52.83
7157;BME280;3620;49.862;8.758;2022-08-14T00:44:46;98900.50;;;24.11;52.65
7157;BME280;3620;49.862;8.758;2022-08-14T00:47:13;98901.16;;;24.05;52.52
7157;BME280;3620;49.862;8.758;2022-08-14T00:49:41;98894.72;;;23.98;52.25
7157;BME280;3620;49.862;8.758;2022-08-14T00:52:08;98903.06;;;23.87;52.61
7157;BME280;3620;49.862;8.758;2022-08-14T00:54:35;98899.56;;;23.86;52.98
7157;BME280;3620;49.862;8.758;2022-08-14T00:57:03;98897.69;;;23.87;53.19
7157;BME280;3620;49.862;8.758;2022-08-14T00:59:30;98894.31;;;23.85;53.57
7157;BME280;3620;49.862;8.758;2022-08-14T01:01:59;98886.25;;;23.77;54.24
7157;BME280;3620;49.862;8.758;2022-08-14T01:04:27;98883.19;;;23.72;54.47
7157;BME280;3620;49.862;8.758;2022-08-14T01:06:58;98891.25;;;23.72;54.72
7157;BME280;3620;49.862;8.758;2022-08-14T01:09:26;98882.34;;;23.71;54.74
7157;BME280;3620;49.862;8.758;2022-08-14T01:11:54;98882.81;;;23.67;54.62
7157;BME280;3620;49.862;8.758;2022-08-14T01:14:22;98886.69;;;23.64;54.70
7157;BME280;3620;49.862;8.758;2022-08-14T01:16:49;98877.41;;;23.59;54.90
7157;BME280;3620;49.862;8.758;2022-08-14T01:19:15;98874.38;;;23.54;54.70
7157;BME280;3620;49.862;8.758;2022-08-14T01:22:01;98872.13;;;23.41;55.00
7157;BME280;3620;49.862;8.758;2022-08-14T01:24:29;98866.25;;;23.38;55.09
7157;BME280;3620;49.862;8.758;2022-08-14T01:26:56;98865.16;;;23.30;55.54
7157;BME280;3620;49.862;8.758;2022-08-14T01:29:23;98864.47;;;23.28;55.44
7157;BME280;3620;49.862;8.758;2022-08-14T01:31:50;98864.13;;;23.31;55.58
7157;BME280;3620;49.862;8.758;2022-08-14T01:34:17;98865.09;;;23.22;55.89
7157;BME280;3620;49.862;8.758;2022-08-14T01:36:48;98864.75;;;23.17;56.49
7157;BME280;3620;49.862;8.758;2022-08-14T01:39:16;98864.56;;;23.19;56.45
7157;BME280;3620;49.862;8.758;2022-08-14T01:41:45;98861.03;;;23.18;56.63
7157;BME280;3620;49.862;8.758;2022-08-14T01:44:22;98855.63;;;23.10;57.24
7157;BME280;3620;49.862;8.758;2022-08-14T01:46:53;98849.63;;;23.16;56.82
7157;BME280;3620;49.862;8.758;2022-08-14T01:49:23;98846.25;;;23.14;57.58
7157;BME280;3620;49.862;8.758;2022-08-14T01:51:50;98842.88;;;23.12;58.28
7157;BME280;3620;49.862;8.758;2022-08-14T01:54:23;98835.53;;;23.14;58.49
7157;BME280;3620;49.862;8.758;2022-08-14T01:56:51;98837.06;;;23.17;58.94
7157;BME280;3620;49.862;8.758;2022-08-14T01:59:22;98829.84;;;23.17;58.77
7157;BME280;3620;49.862;8.758;2022-08-14T02:01:52;98825.94;;;23.12;58.44
7157;BME280;3620;49.862;8.758;2022-08-14T02:04:23;98821.13;;;23.15;57.97
7157;BME280;3620;49.862;8.758;2022-08-14T02:06:50;98818.06;;;23.10;57.72
7157;BME280;3620;49.862;8.758;2022-08-14T02:09:18;98812.69;;;23.10;57.76
7157;BME280;3620;49.862;8.758;2022-08-14T02:11:48;98806.94;;;23.05;58.21
7157;BME280;3620;49.862;8.758;2022-08-14T02:14:15;98808.28;;;23.01;57.93
7157;BME280;3620;49.862;8.758;2022-08-14T02:16:44;98806.91;;;22.97;58.68
7157;BME280;3620;49.862;8.758;2022-08-14T02:19:13;98795.81;;;22.92;58.42
7157;BME280;3620;49.862;8.758;2022-08-14T02:21:42;98785.03;;;22.84;58.66
7157;BME280;3620;49.862;8.758;2022-08-14T02:24:10;98781.13;;;22.79;59.19
7157;BME280;3620;49.862;8.758;2022-08-14T02:26:39;98778.38;;;22.71;59.28
7157;BME280;3620;49.862;8.758;2022-08-14T02:29:09;98774.56;;;22.73;59.29
7157;BME280;3620;49.862;8.758;2022-08-14T02:31:38;98771.13;;;22.63;60.04
7157;BME280;3620;49.862;8.758;2022-08-14T02:34:06;98773.38;;;22.58;60.37
7157;BME280;3620;49.862;8.758;2022-08-14T02:36:34;98769.28;;;22.46;61.14
7157;BME280;3620;49.862;8.758;2022-08-14T02:39:01;98775.28;;;22.40;61.72
7157;BME280;3620;49.862;8.758;2022-08-14T02:41:28;98780.38;;;22.33;61.65
7157;BME280;3620;49.862;8.758;2022-08-14T02:43:56;98781.00;;;22.27;61.89
7157;BME280;3620;49.862;8.758;2022-08-14T02:46:24;98775.53;;;22.29;61.88
7157;BME280;3620;49.862;8.758;2022-08-14T02:48:52;98779.88;;;22.30;61.96
7157;BME280;3620;49.862;8.758;2022-08-14T02:51:19;98772.84;;;22.29;62.11
7157;BME280;3620;49.862;8.758;2022-08-14T02:53:46;98776.34;;;22.29;62.59
7157;BME280;3620;49.862;8.758;2022-08-14T02:56:15;98782.16;;;22.25;62.57
7157;BME280;3620;49.862;8.758;2022-08-14T02:58:45;98773.44;;;22.23;62.62
7157;BME280;3620;49.862;8.758;2022-08-14T03:01:15;98772.44;;;22.24;62.59
7157;BME280;3620;49.862;8.758;2022-08-14T03:03:45;98770.22;;;22.19;62.74
7157;BME280;3620;49.862;8.758;2022-08-14T03:06:13;98763.34;;;22.17;63.23
7157;BME280;3620;49.862;8.758;2022-08-14T03:08:41;98770.06;;;22.21;63.25
7157;BME280;3620;49.862;8.758;2022-08-14T03:11:10;98764.19;;;22.17;63.44
7157;BME280;3620;49.862;8.758;2022-08-14T03:13:38;98756.66;;;22.21;63.44
7157;BME280;3620;49.862;8.758;2022-08-14T03:16:09;98752.16;;;22.21;63.43
7157;BME280;3620;49.862;8.758;2022-08-14T03:18:37;98745.25;;;22.19;63.64
7157;BME280;3620;49.862;8.758;2022-08-14T03:21:10;98748.09;;;22.17;63.85
7157;BME280;3620;49.862;8.758;2022-08-14T03:23:37;98750.22;;;22.14;63.86
7157;BME280;3620;49.862;8.758;2022-08-14T03:26:06;98757.19;;;22.07;64.15
7157;BME280;3620;49.862;8.758;2022-08-14T03:28:33;98759.06;;;22.06;64.07
7157;BME280;3620;49.862;8.758;2022-08-14T03:31:00;98756.97;;;22.00;64.38
7157;BME280;3620;49.862;8.758;2022-08-14T03:33:27;98751.78;;;21.99;64.44
7157;BME280;3620;49.862;8.758;2022-08-14T03:35:54;98750.16;;;21.88;64.50
7157;BME280;3620;49.862;8.758;2022-08-14T03:38:22;98752.84;;;21.88;64.62
7157;BME280;3620;49.862;8.758;2022-08-14T03:40:49;98757.75;;;21.93;64.96
7157;BME280;3620;49.862;8.758;2022-08-14T03:43:16;98757.34;;;21.87;65.04
7157;BME280;3620;49.862;8.758;2022-08-14T03:45:43;98759.34;;;21.85;65.16
7157;BME280;3620;49.862;8.758;2022-08-14T03:48:11;98750.00;;;21.89;64.98
7157;BME280;3620;49.862;8.758;2022-08-14T03:50:43;98751.03;;;21.88;65.29
7157;BME280;3620;49.862;8.758;2022-08-14T03:53:11;98751.72;;;21.91;65.40
7157;BME280;3620;49.862;8.758;2022-08-14T03:55:40;98741.59;;;21.84;65.55
7157;BME280;3620;49.862;8.758;2022-08-14T03:58:08;98742.59;;;21.83;65.87
7157;BME280;3620;49.862;8.758;2022-08-14T04:00:36;98740.84;;;21.82;65.92
7157;BME280;3620;49.862;8.758;2022-08-14T04:03:04;98733.72;;;21.83;65.75
7157;BME280;3620;49.862;8.758;2022-08-14T04:05:31;98733.16;;;21.79;65.79
7157;BME280;3620;49.862;8.758;2022-08-14T04:07:58;98728.47;;;21.81;65.83
7157;BME280;3620;49.862;8.758;2022-08-14T04:10:25;98723.56;;;21.86;66.04
7157;BME280;3620;49.862;8.758;2022-08-14T04:12:53;98720.16;;;21.84;66.21
7157;BME280;3620;49.862;8.758;2022-08-14T04:15:25;98718.50;;;21.83;66.46
7157;BME280;3620;49.862;8.758;2022-08-14T04:17:52;98724.09;;;21.80;67.10
7157;BME280;3620;49.862;8.758;2022-08-14T04:20:19;98721.44;;;21.80;67.37
7157;BME280;3620;49.862;8.758;2022-08-14T04:22:46;98727.22;;;21.85;67.46
7157;BME280;3620;49.862;8.758;2022-08-14T04:25:15;98729.59;;;21.88;67.76
7157;BME280;3620;49.862;8.758;2022-08-14T04:27:41;98723.22;;;21.89;67.79
7157;BME280;3620;49.862;8.758;2022-08-14T04:30:10;98720.16;;;21.84;67.66
7157;BME280;3620;49.862;8.758;2022-08-14T04:32:37;98717.78;;;21.81;68.32
7157;BME280;3620;49.862;8.758;2022-08-14T04:35:04;98712.97;;;21.85;67.90
7157;BME280;3620;49.862;8.758;2022-08-14T04:37:31;98719.34;;;21.84;68.26
7157;BME280;3620;49.862;8.758;2022-08-14T04:40:15;98723.22;;;21.89;67.90
7157;BME280;3620;49.862;8.758;2022-08-14T04:42:59;98720.72;;;21.88;68.20
7157;BME280;3620;49.862;8.758;2022-08-14T04:45:45;98724.25;;;21.88;68.34
7157;BME280;3620;49.862;8.758;2022-08-14T04:48:13;98719.25;;;21.94;68.07
7157;BME280;3620;49.862;8.758;2022-08-14T04:50:41;98723.00;;;21.83;68.83
7157;BME280;3620;49.862;8.758;2022-08-14T04:53:10;98720.56;;;21.80;69.26
7157;BME280;3620;49.862;8.758;2022-08-14T04:55:39;98733.84;;;21.81;69.10
7157;BME280;3620;49.862;8.758;2022-08-14T04:58:05;98724.94;;;21.81;69.70
7157;BME280;3620;49.862;8.758;2022-08-14T05:00:33;98718.63;;;21.82;69.64
7157;BME280;3620;49.862;8.758;2022-08-14T05:03:01;98725.78;;;21.91;69.83
7157;BME280;3620;49.862;8.758;2022-08-14T05:05:30;98718.25;;;21.95;69.66
7157;BME280;3620;49.862;8.758;2022-08-14T05:08:03;98721.09;;;21.93;70.21
7157;BME280;3620;49.862;8.758;2022-08-14T05:10:33;98721.00;;;22.03;70.13
7157;BME280;3620;49.862;8.758;2022-08-14T05:13:00;98723.16;;;21.99;70.17
7157;BME280;3620;49.862;8.758;2022-08-14T05:15:30;98721.69;;;22.05;70.37
7157;BME280;3620;49.862;8.758;2022-08-14T05:17:56;98719.09;;;22.13;70.01
7157;BME280;3620;49.862;8.758;2022-08-14T05:20:28;98720.75;;;22.14;69.97
7157;BME280;3620;49.862;8.758;2022-08-14T05:22:55;98717.63;;;22.18;69.98
7157;BME280;3620;49.862;8.758;2022-08-14T05:25:23;98722.22;;;22.26;69.80
7157;BME280;3620;49.862;8.758;2022-08-14T05:27:50;98719.53;;;22.26;69.85
7157;BME280;3620;49.862;8.758;2022-08-14T05:30:17;98717.53;;;22.28;69.95
7157;BME280;3620;49.862;8.758;2022-08-14T05:32:44;98721.50;;;22.41;70.11
7157;BME280;3620;49.862;8.758;2022-08-14T05:35:11;98714.59;;;22.39;69.98
7157;BME280;3620;49.862;8.758;2022-08-14T05:37:39;98716.66;;;22.45;69.81
7157;BME280;3620;49.862;8.758;2022-08-14T05:40:07;98719.72;;;22.50;70.20
7157;BME280;3620;49.862;8.758;2022-08-14T05:42:35;98718.88;;;22.49;70.05
7157;BME280;3620;49.862;8.758;2022-08-14T05:45:03;98711.03;;;22.56;70.18
7157;BME280;3620;49.862;8.758;2022-08-14T05:47:32;98715.81;;;22.62;69.94
7157;BME280;3620;49.862;8.758;2022-08-14T05:49:58;98711.88;;;22.56;69.87
7157;BME280;3620;49.862;8.758;2022-08-14T05:52:26;98716.50;;;22.46;70.83
7157;BME280;3620;49.862;8.758;2022-08-14T05:54:54;98726.69;;;22.43;71.27
7157;BME280;3620;49.862;8.758;2022-08-14T05:57:22;98721.03;;;22.46;71.13
7157;BME280;3620;49.862;8.758;2022-08-14T05:59:49;98721.06;;;22.54;71.17
7157;BME280;3620;49.862;8.758;2022-08-14T06:02:16;98719.69;;;22.68;70.67
7157;BME280;3620;49.862;8.758;2022-08-14T06:04:42;98716.03;;;22.69;70.02
7157;BME280;3620;49.862;8.758;2022-08-14T06:07:12;98716.75;;;22.79;70.11
7157;BME280;3620;49.862;8.758;2022-08-14T06:09:39;98718.94;;;22.83;69.84
7157;BME280;3620;49.862;8.758;2022-08-14T06:12:08;98713.97;;;22.88;69.15
7157;BME280;3620;49.862;8.758;2022-08-14T06:14:35;98720.66;;;22.84;69.74
7157;BME280;3620;49.862;8.758;2022-08-14T06:17:02;98712.94;;;22.89;69.85
7157;BME280;3620;49.862;8.758;2022-08-14T06:19:29;98723.06;;;22.95;69.77
7157;BME280;3620;49.862;8.758;2022-08-14T06:21:55;98721.94;;;23.06;69.35
7157;BME280;3620;49.862;8.758;2022-08-14T06:24:22;98727.13;;;23.07;69.68
7157;BME280;3620;49.862;8.758;2022-08-14T06:26:49;98724.50;;;23.15;69.70
7157;BME280;3620;49.862;8.758;2022-08-14T06:29:17;98727.84;;;23.17;69.69
7157;BME280;3620;49.862;8.758;2022-08-14T06:31:44;98727.50;;;23.20;69.54
7157;BME280;3620;49.862;8.758;2022-08-14T06:34:12;98719.81;;;23.25;69.84
7157;BME280;3620;49.862;8.758;2022-08-14T06:36:39;98717.50;;;23.30;69.47
7157;BME280;3620;49.862;8.758;2022-08-14T06:39:05;98718.88;;;23.35;69.69
7157;BME280;3620;49.862;8.758;2022-08-14T06:41:32;98719.94;;;23.42;69.44
7157;BME280;3620;49.862;8.758;2022-08-14T06:43:59;98715.91;;;23.46;69.36
7157;BME280;3620;49.862;8.758;2022-08-14T06:46:29;98720.97;;;23.49;69.19
7157;BME280;3620;49.862;8.758;2022-08-14T06:48:56;98713.56;;;23.51;69.24
7157;BME280;3620;49.862;8.758;2022-08-14T06:51:22;98711.22;;;23.56;69.14
7157;BME280;3620;49.862;8.758;2022-08-14T06:53:49;98699.84;;;23.62;68.83
7157;BME280;3620;49.862;8.758;2022-08-14T06:56:16;98699.50;;;23.65;68.96
7157;BME280;3620;49.862;8.758;2022-08-14T06:58:43;98690.94;;;23.69;68.70
7157;BME280;3620;49.862;8.758;2022-08-14T07:01:09;98690.63;;;23.72;69.30
7157;BME280;3620;49.862;8.758;2022-08-14T07:03:56;98685.91;;;23.66;68.64
7157;BME280;3620;49.862;8.758;2022-08-14T07:06:40;98675.00;;;23.76;69.47
7157;BME280;3620;49.862;8.758;2022-08-14T07:09:08;98672.00;;;23.87;68.87
7157;BME280;3620;49.862;8.758;2022-08-14T07:11:35;98675.00;;;24.00;68.15
7157;BME280;3620;49.862;8.758;2022-08-14T07:14:02;98663.28;;;24.01;68.08
7157;BME280;3620;49.862;8.758;2022-08-14T07:16:29;98659.13;;;24.07;67.88
7157;BME280;3620;49.862;8.758;2022-08-14T07:18:57;98665.47;;;24.06;67.69
7157;BME280;3620;49.862;8.758;2022-08-14T07:21:23;98651.22;;;24.13;68.52
7157;BME280;3620;49.862;8.758;2022-08-14T07:23:50;98648.84;;;24.18;68.05
7157;BME280;3620;49.862;8.758;2022-08-14T07:26:17;98649.84;;;24.25;67.81
7157;BME280;3620;49.862;8.758;2022-08-14T07:28:44;98637.22;;;24.34;66.62
7157;BME280;3620;49.862;8.758;2022-08-14T07:31:11;98638.41;;;24.31;66.11
7157;BME280;3620;49.862;8.758;2022-08-14T07:33:40;98634.53;;;24.42;65.33
7157;BME280;3620;49.862;8.758;2022-08-14T07:36:11;98631.66;;;24.43;65.25
7157;BME280;3620;49.862;8.758;2022-08-14T07:38:39;98629.47;;;24.55;64.78
7157;BME280;3620;49.862;8.758;2022-08-14T07:41:07;98633.28;;;24.60;64.53
7157;BME280;3620;49.862;8.758;2022-08-14T07:43:35;98631.63;;;24.59;64.70
7157;BME280;3620;49.862;8.758;2022-08-14T07:46:02;98640.38;;;24.61;64.93
7157;BME280;3620;49.862;8.758;2022-08-14T07:48:29;98632.91;;;24.71;63.80
7157;BME280;3620;49.862;8.758;2022-08-14T07:50:56;98639.66;;;24.75;63.15
7157;BME280;3620;49.862;8.758;2022-08-14T07:53:25;98643.00;;;24.86;63.02
7157;BME280;3620;49.862;8.758;2022-08-14T07:55:52;98632.03;;;24.95;61.66
7157;BME280;3620;49.862;8.758;2022-08-14T07:58:18;98644.97;;;25.00;61.77
7157;BME280;3620;49.862;8.758;2022-08-14T08:00:45;98650.50;;;25.06;61.80
7157;BME280;3620;49.862;8.758;2022-08-14T08:03:12;98648.94;;;25.12;60.98
7157;BME280;3620;49.862;8.758;2022-08-14T08:05:40;98648.59;;;25.15;60.97
7157;BME280;3620;49.862;8.758;2022-08-14T08:08:07;98654.97;;;25.22;60.52
7157;BME280;3620;49.862;8.758;2022-08-14T08:10:36;98648.53;;;25.31;60.22
7157;BME280;3620;49.862;8.758;2022-08-14T08:13:07;98649.84;;;25.35;59.61
7157;BME280;3620;49.862;8.758;2022-08-14T08:15:38;98650.47;;;25.45;58.46
7157;BME280;3620;49.862;8.758;2022-08-14T08:18:07;98653.84;;;25.47;58.82
7157;BME280;3620;49.862;8.758;2022-08-14T08:20:35;98656.84;;;25.52;58.36
7157;BME280;3620;49.862;8.758;2022-08-14T08:23:03;98649.22;;;25.56;58.36
7157;BME280;3620;49.862;8.758;2022-08-14T08:25:33;98639.59;;;25.61;57.71
7157;BME280;3620;49.862;8.758;2022-08-14T08:28:04;98640.88;;;25.73;57.88
7157;BME280;3620;49.862;8.758;2022-08-14T08:30:33;98641.16;;;25.78;57.06
7157;BME280;3620;49.862;8.758;2022-08-14T08:33:02;98643.06;;;25.92;55.71
7157;BME280;3620;49.862;8.758;2022-08-14T08:35:31;98635.22;;;26.05;55.51
7157;BME280;3620;49.862;8.758;2022-08-14T08:38:04;98634.69;;;26.10;55.50
7157;BME280;3620;49.862;8.758;2022-08-14T08:40:34;98643.19;;;26.22;55.12
7157;BME280;3620;49.862;8.758;2022-08-14T08:43:03;98630.00;;;26.27;54.23
7157;BME280;3620;49.862;8.758;2022-08-14T08:45:33;98640.50;;;26.22;54.25
7157;BME280;3620;49.862;8.758;2022-08-14T08:48:01;98627.22;;;26.35;53.53
7157;BME280;3620;49.862;8.758;2022-08-14T08:50:31;98631.50;;;26.44;53.30
7157;BME280;3620;49.862;8.758;2022-08-14T08:53:01;98627.41;;;26.48;53.56
7157;BME280;3620;49.862;8.758;2022-08-14T08:55:30;98622.56;;;26.58;53.20
7157;BME280;3620;49.862;8.758;2022-08-14T08:57:58;98629.31;;;26.62;53.11
7157;BME280;3620;49.862;8.758;2022-08-14T09:00:28;98634.59;;;26.70;52.72
7157;BME280;3620;49.862;8.758;2022-08-14T09:03:05;98636.44;;;26.69;52.15
7157;BME280;3620;49.862;8.758;2022-08-14T09:05:34;98622.06;;;26.77;50.70
7157;BME280;3620;49.862;8.758;2022-08-14T09:08:13;98626.63;;;26.91;50.99
7157;BME280;3620;49.862;8.758;2022-08-14T09:10:40;98622.88;;;26.92;51.33
7157;BME280;3620;49.862;8.758;2022-08-14T09:13:07;98624.81;;;26.98;50.09
7157;BME280;3620;49.862;8.758;2022-08-14T09:15:39;98629.28;;;27.06;48.84
7157;BME280;3620;49.862;8.758;2022-08-14T09:18:07;98621.56;;;27.17;49.54
7157;BME280;3620;49.862;8.758;2022-08-14T09:20:37;98617.72;;;27.26;49.39
7157;BME280;3620;49.862;8.758;2022-08-14T09:23:04;98613.19;;;27.33;49.14
7157;BME280;3620;49.862;8.758;2022-08-14T09:25:32;98618.59;;;27.33;49.27
7157;BME280;3620;49.862;8.758;2022-08-14T09:27:59;98613.41;;;27.46;48.31
7157;BME280;3620;49.862;8.758;2022-08-14T09:30:26;98607.59;;;27.49;47.02
7157;BME280;3620;49.862;8.758;2022-08-14T09:33:06;98611.41;;;27.55;47.37
7157;BME280;3620;49.862;8.758;2022-08-14T09:35:46;98605.22;;;27.61;46.74
7157;BME280;3620;49.862;8.758;2022-08-14T09:38:21;98597.56;;;27.65;46.96
7157;BME280;3620;49.862;8.758;2022-08-14T09:40:58;98597.94;;;27.83;45.98
7157;BME280;3620;49.862;8.758;2022-08-14T09:43:32;98593.06;;;27.93;45.47
7157;BME280;3620;49.862;8.758;2022-08-14T09:45:59;98596.41;;;27.95;45.51
7157;BME280;3620;49.862;8.758;2022-08-14T09:48:27;98584.81;;;28.01;45.13
7157;BME280;3620;49.862;8.758;2022-08-14T09:50:55;98582.75;;;28.03;45.66
7157;BME280;3620;49.862;8.758;2022-08-14T09:53:37;98579.28;;;28.09;45.49
7157;BME280;3620;49.862;8.758;2022-08-14T09:56:06;98565.56;;;28.10;44.41
7157;BME280;3620;49.862;8.758;2022-08-14T09:58:38;98571.91;;;28.24;44.42
7157;BME280;3620;49.862;8.758;2022-08-14T10:01:10;98569.19;;;28.24;45.38
7157;BME280;3620;49.862;8.758;2022-08-14T10:03:47;98572.13;;;28.29;45.84
7157;BME280;3620;49.862;8.758;2022-08-14T10:06:16;98568.00;;;28.33;45.12
7157;BME280;3620;49.862;8.758;2022-08-14T10:08:46;98556.38;;;28.39;43.59
7157;BME280;3620;49.862;8.758;2022-08-14T10:11:20;98559.81;;;28.54;43.70
7157;BME280;3620;49.862;8.758;2022-08-14T10:13:48;98553.22;;;28.63;42.76
7157;BME280;3620;49.862;8.758;2022-08-14T10:16:19;98547.41;;;28.66;43.29
7157;BME280;3620;49.862;8.758;2022-08-14T10:19:05;98534.28;;;28.63;42.52
7157;BME280;3620;49.862;8.758;2022-08-14T10:21:33;98532.66;;;28.69;41.58
7157;BME280;3620;49.862;8.758;2022-08-14T10:24:01;98551.16;;;28.72;41.89
7157;BME280;3620;49.862;8.758;2022-08-14T10:26:29;98557.47;;;28.79;41.82
7157;BME280;3620;49.862;8.758;2022-08-14T10:29:04;98562.91;;;28.85;42.05
7157;BME280;3620;49.862;8.758;2022-08-14T10:31:31;98549.09;;;28.74;40.39
7157;BME280;3620;49.862;8.758;2022-08-14T10:34:02;98542.03;;;28.73;40.19
7157;BME280;3620;49.862;8.758;2022-08-14T10:36:31;98538.28;;;28.74;39.53
7157;BME280;3620;49.862;8.758;2022-08-14T10:39:03;98534.56;;;28.81;40.63
7157;BME280;3620;49.862;8.758;2022-08-14T10:41:38;98532.91;;;28.87;41.61
7157;BME280;3620;49.862;8.758;2022-08-14T10:44:08;98543.38;;;28.96;40.14
7157;BME280;3620;49.862;8.758;2022-08-14T10:46:43;98534.25;;;29.11;40.43
7157;BME280;3620;49.862;8.758;2022-08-14T10:49:21;98534.31;;;29.17;39.34
7157;BME280;3620;49.862;8.758;2022-08-14T10:51:56;98526.19;;;29.24;39.38
7157;BME280;3620;49.862;8.758;2022-08-14T10:54:31;98526.41;;;29.29;39.74
7157;BME280;3620;49.862;8.758;2022-08-14T10:57:10;98520.38;;;29.33;38.05
7157;BME280;3620;49.862;8.758;2022-08-14T10:59:41;98513.69;;;29.36;38.14
7157;BME280;3620;49.862;8.758;2022-08-14T11:02:20;98512.44;;;29.45;40.17
7157;BME280;3620;49.862;8.758;2022-08-14T11:04:59;98507.69;;;29.60;37.65
7157;BME280;3620;49.862;8.758;2022-08-14T11:07:27;98496.41;;;29.69;38.27
7157;BME280;3620;49.862;8.758;2022-08-14T11:09:55;98498.50;;;29.74;37.89
7157;BME280;3620;49.862;8.758;2022-08-14T11:12:23;98498.31;;;29.82;37.63
7157;BME280;3620;49.862;8.758;2022-08-14T11:14:55;98486.00;;;29.80;36.80
7157;BME280;3620;49.862;8.758;2022-08-14T11:17:24;98477.66;;;29.81;36.77
7157;BME280;3620;49.862;8.758;2022-08-14T11:19:56;98477.66;;;29.81;36.70
7157;BME280;3620;49.862;8.758;2022-08-14T11:22:26;98474.72;;;29.76;37.26
7157;BME280;3620;49.862;8.758;2022-08-14T11:24:54;98472.22;;;29.81;37.22
7157;BME280;3620;49.862;8.758;2022-08-14T11:27:22;98460.13;;;29.90;37.96
7157;BME280;3620;49.862;8.758;2022-08-14T11:29:51;98459.47;;;30.01;37.63
7157;BME280;3620;49.862;8.758;2022-08-14T11:32:19;98449.25;;;30.03;36.33
7157;BME280;3620;49.862;8.758;2022-08-14T11:34:46;98441.69;;;30.12;36.30
7157;BME280;3620;49.862;8.758;2022-08-14T11:37:13;98441.69;;;30.18;36.36
7157;BME280;3620;49.862;8.758;2022-08-14T11:39:42;98435.59;;;30.29;36.04
7157;BME280;3620;49.862;8.758;2022-08-14T11:42:19;98437.91;;;30.32;36.21
7157;BME280;3620;49.862;8.758;2022-08-14T11:44:46;98439.97;;;30.30;36.38
7157;BME280;3620;49.862;8.758;2022-08-14T11:47:14;98440.84;;;30.37;35.55
7157;BME280;3620;49.862;8.758;2022-08-14T11:49:44;98442.06;;;30.41;34.97
7157;BME280;3620;49.862;8.758;2022-08-14T11:52:12;98437.59;;;30.54;35.17
7157;BME280;3620;49.862;8.758;2022-08-14T11:54:39;98438.22;;;30.56;35.37
7157;BME280;3620;49.862;8.758;2022-08-14T11:57:14;98438.63;;;30.59;35.01
7157;BME280;3620;49.862;8.758;2022-08-14T11:59:41;98420.63;;;30.65;34.32
7157;BME280;3620;49.862;8.758;2022-08-14T12:02:09;98423.34;;;30.65;33.82
7157;BME280;3620;49.862;8.758;2022-08-14T12:04:47;98418.72;;;30.72;34.03
7157;BME280;3620;49.862;8.758;2022-08-14T12:07:14;98417.19;;;30.82;34.37
7157;BME280;3620;49.862;8.758;2022-08-14T12:09:43;98416.38;;;30.82;34.31
7157;BME280;3620;49.862;8.758;2022-08-14T12:12:16;98421.81;;;30.88;34.43
7157;BME280;3620;49.862;8.758;2022-08-14T12:14:48;98415.88;;;30.98;34.11
7157;BME280;3620;49.862;8.758;2022-08-14T12:17:16;98407.09;;;30.96;34.02
7157;BME280;3620;49.862;8.758;2022-08-14T12:19:45;98406.41;;;31.07;33.55
7157;BME280;3620;49.862;8.758;2022-08-14T12:22:12;98421.91;;;31.06;34.20
7157;BME280;3620;49.862;8.758;2022-08-14T12:24:40;98414.44;;;31.20;34.45
7157;BME280;3620;49.862;8.758;2022-08-14T12:27:07;98407.53;;;31.24;33.92
7157;BME280;3620;49.862;8.758;2022-08-14T12:29:36;98402.91;;;31.31;34.20
7157;BME280;3620;49.862;8.758;2022-08-14T12:32:03;98408.88;;;31.40;34.17
7157;BME280;3620;49.862;8.758;2022-08-14T12:34:32;98404.25;;;31.40;34.99
7157;BME280;3620;49.862;8.758;2022-08-14T12:37:05;98406.38;;;31.38;33.95
7157;BME280;3620;49.862;8.758;2022-08-14T12:39:33;98393.84;;;31.37;33.18
7157;BME280;3620;49.862;8.758;2022-08-14T12:42:02;98394.97;;;31.54;33.49
7157;BME280;3620;49.862;8.758;2022-08-14T12:44:33;98390.31;;;31.61;33.34
7157;BME280;3620;49.862;8.758;2022-08-14T12:47:07;98383.94;;;31.67;33.28
7157;BME280;3620;49.862;8.758;2022-08-14T12:49:35;98383.50;;;31.70;33.24
7157;BME280;3620;49.862;8.758;2022-08-14T12:52:03;98370.22;;;31.80;32.78
7157;BME280;3620;49.862;8.758;2022-08-14T12:54:32;98368.25;;;31.88;33.06
7157;BME280;3620;49.862;8.758;2022-08-14T12:57:05;98360.25;;;31.93;32.73
7157;BME280;3620;49.862;8.758;2022-08-14T12:59:32;98361.91;;;31.94;32.40
7157;BME280;3620;49.862;8.758;2022-08-14T13:02:00;98355.72;;;31.87;32.24
7157;BME280;3620;49.862;8.758;2022-08-14T13:04:28;98356.16;;;31.83;32.20
7157;BME280;3620;49.862;8.758;2022-08-14T13:07:00;98349.38;;;31.93;32.22
7157;BME280;3620;49.862;8.758;2022-08-14T13:09:33;98342.59;;;32.02;33.23
7157;BME280;3620;49.862;8.758;2022-08-14T13:12:01;98338.59;;;32.04;34.10
7157;BME280;3620;49.862;8.758;2022-08-14T13:14:31;98322.94;;;32.00;31.58
7157;BME280;3620;49.862;8.758;2022-08-14T13:16:59;98329.44;;;31.99;31.92
7157;BME280;3620;49.862;8.758;2022-08-14T13:19:28;98315.06;;;32.10;31.58
7157;BME280;3620;49.862;8.758;2022-08-14T13:21:56;98318.38;;;32.12;31.71
7157;BME280;3620;49.862;8.758;2022-08-14T13:24:23;98308.47;;;32.17;32.36
7157;BME280;3620;49.862;8.758;2022-08-14T13:26:51;98323.78;;;32.30;31.31
7157;BME280;3620;49.862;8.758;2022-08-14T13:29:22;98316.97;;;32.39;31.82
7157;BME280;3620;49.862;8.758;2022-08-14T13:31:51;98310.41;;;32.58;31.24